sensor_id;sensor_type;location;lat;lon;timestamp;P1;durP1;ratioP1;P2;durP2;ratioP2
49738;SDS011;53662;50.114;8.626;2022-08-20T00:01:49;8.95;;;4.43;;
49738;SDS011;53662;50.114;8.626;2022-08-20T00:04:15;6.47;;;3.90;;
49738;SDS011;53662;50.114;8.626;2022-08-20T00:06:41;6.05;;;3.60;;
49738;SDS011;53662;50.114;8.626;2022-08-20T00:09:07;4.20;;;3.67;;
49738;SDS011;53662;50.114;8.626;2022-08-20T00:11:33;3.75;;;3.30;;
49738;SDS011;53662;50.114;8.626;2022-08-20T00:14:00;3.85;;;3.47;;
49738;SDS011;53662;50.114;8.626;2022-08-20T00:16:28;3.85;;;3.40;;
49738;SDS011;53662;50.114;8.626;2022-08-20T00:18:56;4.07;;;3.63;;
49738;SDS011;53662;50.114;8.626;2022-08-20T00:21:22;4.15;;;3.28;;
49738;SDS011;53662;50.114;8.626;2022-08-20T00:23:49;4.40;;;3.30;;
49738;SDS011;53662;50.114;8.626;2022-08-20T00:26:16;5.53;;;3.30;;
49738;SDS011;53662;50.114;8.626;2022-08-20T00:28:42;4.53;;;3.35;;
49738;SDS011;53662;50.114;8.626;2022-08-20T00:31:09;8.18;;;3.50;;
49738;SDS011;53662;50.114;8.626;2022-08-20T00:33:36;5.55;;;3.83;;
49738;SDS011;53662;50.114;8.626;2022-08-20T00:36:02;4.20;;;3.90;;
49738;SDS011;53662;50.114;8.626;2022-08-20T00:38:31;4.28;;;3.70;;
49738;SDS011;53662;50.114;8.626;2022-08-20T00:40:58;6.30;;;3.88;;
49738;SDS011;53662;50.114;8.626;2022-08-20T00:43:30;3.90;;;3.50;;
49738;SDS011;53662;50.114;8.626;2022-08-20T00:45:57;6.65;;;4.43;;
49738;SDS011;53662;50.114;8.626;2022-08-20T00:48:25;3.80;;;3.50;;
49738;SDS011;53662;50.114;8.626;2022-08-20T00:50:52;4.88;;;3.65;;
49738;SDS011;53662;50.114;8.626;2022-08-20T00:53:19;4.65;;;3.70;;
49738;SDS011;53662;50.114;8.626;2022-08-20T00:55:46;4.82;;;3.85;;
49738;SDS011;53662;50.114;8.626;2022-08-20T00:58:11;6.38;;;3.45;;
49738;SDS011;53662;50.114;8.626;2022-08-20T01:00:39;6.55;;;3.90;;
49738;SDS011;53662;50.114;8.626;2022-08-20T01:03:07;9.85;;;3.40;;
49738;SDS011;53662;50.114;8.626;2022-08-20T01:05:34;4.50;;;3.70;;
49738;SDS011;53662;50.114;8.626;2022-08-20T01:08:00;3.40;;;3.20;;
49738;SDS011;53662;50.114;8.626;2022-08-20T01:10:27;4.88;;;3.28;;
49738;SDS011;53662;50.114;8.626;2022-08-20T01:12:54;5.28;;;3.20;;
49738;SDS011;53662;50.114;8.626;2022-08-20T01:15:22;3.67;;;3.38;;
49738;SDS011;53662;50.114;8.626;2022-08-20T01:17:50;6.85;;;3.40;;
49738;SDS011;53662;50.114;8.626;2022-08-20T01:25:51;8.85;;;3.22;;
49738;SDS011;53662;50.114;8.626;2022-08-20T01:28:19;3.95;;;3.60;;
49738;SDS011;53662;50.114;8.626;2022-08-20T01:30:46;4.43;;;3.70;;
49738;SDS011;53662;50.114;8.626;2022-08-20T01:33:12;4.18;;;3.13;;
49738;SDS011;53662;50.114;8.626;2022-08-20T01:35:38;5.68;;;3.13;;
49738;SDS011;53662;50.114;8.626;2022-08-20T01:38:05;5.68;;;3.08;;
49738;SDS011;53662;50.114;8.626;2022-08-20T01:40:37;8.18;;;3.47;;
49738;SDS011;53662;50.114;8.626;2022-08-20T01:43:09;5.13;;;3.65;;
49738;SDS011;53662;50.114;8.626;2022-08-20T01:45:35;4.78;;;3.40;;
49738;SDS011;53662;50.114;8.626;2022-08-20T01:48:03;3.58;;;3.28;;
49738;SDS011;53662;50.114;8.626;2022-08-20T01:50:30;7.55;;;3.17;;
49738;SDS011;53662;50.114;8.626;2022-08-20T01:53:01;4.60;;;3.20;;
49738;SDS011;53662;50.114;8.626;2022-08-20T01:57:54;2.95;;;2.65;;
49738;SDS011;53662;50.114;8.626;2022-08-20T02:00:21;3.33;;;3.03;;
49738;SDS011;53662;50.114;8.626;2022-08-20T02:02:47;2.95;;;2.75;;
49738;SDS011;53662;50.114;8.626;2022-08-20T02:05:13;3.33;;;3.03;;
49738;SDS011;53662;50.114;8.626;2022-08-20T02:07:39;3.95;;;3.30;;
49738;SDS011;53662;50.114;8.626;2022-08-20T02:10:06;4.63;;;3.70;;
49738;SDS011;53662;50.114;8.626;2022-08-20T02:12:32;3.25;;;2.95;;
49738;SDS011;53662;50.114;8.626;2022-08-20T02:14:59;3.53;;;3.30;;
49738;SDS011;53662;50.114;8.626;2022-08-20T02:17:25;3.70;;;3.30;;
49738;SDS011;53662;50.114;8.626;2022-08-20T02:19:56;4.05;;;3.22;;
49738;SDS011;53662;50.114;8.626;2022-08-20T02:22:25;3.80;;;3.10;;
49738;SDS011;53662;50.114;8.626;2022-08-20T02:24:51;3.50;;;3.20;;
49738;SDS011;53662;50.114;8.626;2022-08-20T02:27:17;3.30;;;2.90;;
49738;SDS011;53662;50.114;8.626;2022-08-20T02:29:47;3.33;;;3.10;;
49738;SDS011;53662;50.114;8.626;2022-08-20T02:32:13;3.58;;;3.28;;
49738;SDS011;53662;50.114;8.626;2022-08-20T02:34:39;3.45;;;3.17;;
49738;SDS011;53662;50.114;8.626;2022-08-20T02:37:05;3.58;;;2.78;;
49738;SDS011;53662;50.114;8.626;2022-08-20T02:39:32;4.10;;;2.85;;
49738;SDS011;53662;50.114;8.626;2022-08-20T02:41:58;5.07;;;2.88;;
49738;SDS011;53662;50.114;8.626;2022-08-20T02:44:26;5.45;;;3.35;;
49738;SDS011;53662;50.114;8.626;2022-08-20T02:46:52;4.32;;;3.03;;
49738;SDS011;53662;50.114;8.626;2022-08-20T02:49:18;3.83;;;3.50;;
49738;SDS011;53662;50.114;8.626;2022-08-20T02:51:45;3.58;;;3.38;;
49738;SDS011;53662;50.114;8.626;2022-08-20T02:54:11;5.40;;;2.95;;
49738;SDS011;53662;50.114;8.626;2022-08-20T02:56:37;3.08;;;2.88;;
49738;SDS011;53662;50.114;8.626;2022-08-20T02:59:04;3.08;;;2.88;;
49738;SDS011;53662;50.114;8.626;2022-08-20T03:01:30;8.98;;;3.30;;
49738;SDS011;53662;50.114;8.626;2022-08-20T03:03:56;3.10;;;2.78;;
49738;SDS011;53662;50.114;8.626;2022-08-20T03:06:27;3.03;;;2.88;;
49738;SDS011;53662;50.114;8.626;2022-08-20T03:08:53;3.05;;;2.80;;
49738;SDS011;53662;50.114;8.626;2022-08-20T03:11:19;4.90;;;2.55;;
49738;SDS011;53662;50.114;8.626;2022-08-20T03:13:45;7.03;;;3.40;;
49738;SDS011;53662;50.114;8.626;2022-08-20T03:16:11;3.65;;;2.88;;
49738;SDS011;53662;50.114;8.626;2022-08-20T03:18:40;3.22;;;2.80;;
49738;SDS011;53662;50.114;8.626;2022-08-20T03:21:07;4.10;;;3.08;;
49738;SDS011;53662;50.114;8.626;2022-08-20T03:23:34;2.90;;;2.70;;
49738;SDS011;53662;50.114;8.626;2022-08-20T03:26:01;2.90;;;2.70;;
49738;SDS011;53662;50.114;8.626;2022-08-20T03:28:27;3.20;;;3.00;;
49738;SDS011;53662;50.114;8.626;2022-08-20T03:30:53;3.03;;;2.70;;
49738;SDS011;53662;50.114;8.626;2022-08-20T03:33:21;4.03;;;2.90;;
49738;SDS011;53662;50.114;8.626;2022-08-20T03:35:47;3.38;;;3.08;;
49738;SDS011;53662;50.114;8.626;2022-08-20T03:38:14;3.08;;;2.88;;
49738;SDS011;53662;50.114;8.626;2022-08-20T03:40:41;3.05;;;2.85;;
49738;SDS011;53662;50.114;8.626;2022-08-20T03:43:07;4.32;;;2.60;;
49738;SDS011;53662;50.114;8.626;2022-08-20T03:45:33;4.80;;;2.45;;
49738;SDS011;53662;50.114;8.626;2022-08-20T03:48:00;4.30;;;2.83;;
49738;SDS011;53662;50.114;8.626;2022-08-20T03:50:27;3.13;;;2.92;;
49738;SDS011;53662;50.114;8.626;2022-08-20T03:52:54;4.53;;;3.15;;
49738;SDS011;53662;50.114;8.626;2022-08-20T03:55:21;5.63;;;3.17;;
49738;SDS011;53662;50.114;8.626;2022-08-20T03:57:48;4.35;;;3.40;;
49738;SDS011;53662;50.114;8.626;2022-08-20T04:00:18;3.60;;;3.20;;
49738;SDS011;53662;50.114;8.626;2022-08-20T04:02:44;2.97;;;2.65;;
49738;SDS011;53662;50.114;8.626;2022-08-20T04:05:10;2.92;;;2.72;;
49738;SDS011;53662;50.114;8.626;2022-08-20T04:07:36;4.85;;;2.90;;
49738;SDS011;53662;50.114;8.626;2022-08-20T04:10:04;3.58;;;3.28;;
49738;SDS011;53662;50.114;8.626;2022-08-20T04:12:30;2.97;;;2.47;;
49738;SDS011;53662;50.114;8.626;2022-08-20T04:14:56;2.58;;;2.33;;
49738;SDS011;53662;50.114;8.626;2022-08-20T04:17:22;4.10;;;3.90;;
49738;SDS011;53662;50.114;8.626;2022-08-20T04:19:48;4.30;;;3.90;;
49738;SDS011;53662;50.114;8.626;2022-08-20T04:22:14;6.65;;;4.13;;
49738;SDS011;53662;50.114;8.626;2022-08-20T04:24:40;4.32;;;3.97;;
49738;SDS011;53662;50.114;8.626;2022-08-20T04:27:07;3.92;;;3.63;;
49738;SDS011;53662;50.114;8.626;2022-08-20T04:29:34;3.97;;;3.70;;
49738;SDS011;53662;50.114;8.626;2022-08-20T04:32:00;4.10;;;3.85;;
49738;SDS011;53662;50.114;8.626;2022-08-20T04:34:26;4.82;;;3.70;;
49738;SDS011;53662;50.114;8.626;2022-08-20T04:36:53;4.53;;;3.60;;
49738;SDS011;53662;50.114;8.626;2022-08-20T04:39:19;3.50;;;3.30;;
49738;SDS011;53662;50.114;8.626;2022-08-20T04:41:45;4.57;;;4.28;;
49738;SDS011;53662;50.114;8.626;2022-08-20T04:44:11;3.97;;;3.67;;
49738;SDS011;53662;50.114;8.626;2022-08-20T04:46:38;5.50;;;5.00;;
49738;SDS011;53662;50.114;8.626;2022-08-20T04:49:05;4.82;;;4.43;;
49738;SDS011;53662;50.114;8.626;2022-08-20T04:51:31;5.50;;;5.10;;
49738;SDS011;53662;50.114;8.626;2022-08-20T04:53:58;6.35;;;5.18;;
49738;SDS011;53662;50.114;8.626;2022-08-20T04:56:25;5.03;;;4.72;;
49738;SDS011;53662;50.114;8.626;2022-08-20T04:58:53;6.10;;;5.07;;
49738;SDS011;53662;50.114;8.626;2022-08-20T05:01:19;5.90;;;5.40;;
49738;SDS011;53662;50.114;8.626;2022-08-20T05:03:47;4.82;;;4.53;;
49738;SDS011;53662;50.114;8.626;2022-08-20T05:06:13;6.20;;;4.88;;
49738;SDS011;53662;50.114;8.626;2022-08-20T05:08:41;5.65;;;5.18;;
49738;SDS011;53662;50.114;8.626;2022-08-20T05:11:07;5.53;;;5.03;;
49738;SDS011;53662;50.114;8.626;2022-08-20T05:13:33;6.00;;;5.50;;
49738;SDS011;53662;50.114;8.626;2022-08-20T05:15:59;5.90;;;5.50;;
49738;SDS011;53662;50.114;8.626;2022-08-20T05:18:27;6.28;;;5.78;;
49738;SDS011;53662;50.114;8.626;2022-08-20T05:20:56;6.60;;;6.10;;
49738;SDS011;53662;50.114;8.626;2022-08-20T05:23:27;7.20;;;5.90;;
49738;SDS011;53662;50.114;8.626;2022-08-20T05:25:53;5.88;;;5.43;;
49738;SDS011;53662;50.114;8.626;2022-08-20T05:28:25;7.13;;;6.20;;
49738;SDS011;53662;50.114;8.626;2022-08-20T05:30:54;29.27;;;6.13;;
49738;SDS011;53662;50.114;8.626;2022-08-20T05:33:21;8.15;;;5.75;;
49738;SDS011;53662;50.114;8.626;2022-08-20T05:35:47;6.82;;;5.97;;
49738;SDS011;53662;50.114;8.626;2022-08-20T05:38:15;14.88;;;5.40;;
49738;SDS011;53662;50.114;8.626;2022-08-20T05:40:43;6.75;;;5.93;;
49738;SDS011;53662;50.114;8.626;2022-08-20T05:43:09;6.43;;;5.78;;
49738;SDS011;53662;50.114;8.626;2022-08-20T05:45:36;7.10;;;6.43;;
49738;SDS011;53662;50.114;8.626;2022-08-20T05:48:03;7.97;;;7.22;;
49738;SDS011;53662;50.114;8.626;2022-08-20T05:50:30;8.18;;;7.38;;
49738;SDS011;53662;50.114;8.626;2022-08-20T05:52:57;7.80;;;7.30;;
49738;SDS011;53662;50.114;8.626;2022-08-20T05:55:23;8.48;;;7.68;;
49738;SDS011;53662;50.114;8.626;2022-08-20T05:57:49;8.40;;;7.50;;
49738;SDS011;53662;50.114;8.626;2022-08-20T06:00:21;8.38;;;7.60;;
49738;SDS011;53662;50.114;8.626;2022-08-20T06:02:47;7.93;;;7.13;;
49738;SDS011;53662;50.114;8.626;2022-08-20T06:05:31;7.60;;;6.90;;
49738;SDS011;53662;50.114;8.626;2022-08-20T06:07:58;7.30;;;6.80;;
49738;SDS011;53662;50.114;8.626;2022-08-20T06:10:24;7.00;;;6.60;;
49738;SDS011;53662;50.114;8.626;2022-08-20T06:12:50;8.13;;;6.88;;
49738;SDS011;53662;50.114;8.626;2022-08-20T06:15:17;7.32;;;6.70;;
49738;SDS011;53662;50.114;8.626;2022-08-20T06:17:43;7.47;;;6.97;;
49738;SDS011;53662;50.114;8.626;2022-08-20T06:20:09;7.57;;;6.80;;
49738;SDS011;53662;50.114;8.626;2022-08-20T06:22:35;6.68;;;6.28;;
49738;SDS011;53662;50.114;8.626;2022-08-20T06:25:02;6.43;;;6.03;;
49738;SDS011;53662;50.114;8.626;2022-08-20T06:27:28;6.53;;;6.18;;
49738;SDS011;53662;50.114;8.626;2022-08-20T06:29:54;6.97;;;6.45;;
49738;SDS011;53662;50.114;8.626;2022-08-20T06:32:20;7.70;;;6.88;;
49738;SDS011;53662;50.114;8.626;2022-08-20T06:34:48;7.03;;;6.53;;
49738;SDS011;53662;50.114;8.626;2022-08-20T06:37:15;7.22;;;6.80;;
49738;SDS011;53662;50.114;8.626;2022-08-20T06:39:42;7.68;;;7.07;;
49738;SDS011;53662;50.114;8.626;2022-08-20T06:42:08;7.22;;;6.63;;
49738;SDS011;53662;50.114;8.626;2022-08-20T06:44:34;6.32;;;5.93;;
49738;SDS011;53662;50.114;8.626;2022-08-20T06:47:01;8.27;;;6.75;;
49738;SDS011;53662;50.114;8.626;2022-08-20T06:49:27;6.90;;;6.20;;
49738;SDS011;53662;50.114;8.626;2022-08-20T06:51:54;6.60;;;6.20;;
49738;SDS011;53662;50.114;8.626;2022-08-20T06:54:20;6.53;;;6.00;;
49738;SDS011;53662;50.114;8.626;2022-08-20T06:56:46;5.88;;;5.28;;
49738;SDS011;53662;50.114;8.626;2022-08-20T06:59:11;6.47;;;6.07;;
49738;SDS011;53662;50.114;8.626;2022-08-20T07:01:37;6.00;;;5.60;;
49738;SDS011;53662;50.114;8.626;2022-08-20T07:04:03;6.07;;;5.68;;
49738;SDS011;53662;50.114;8.626;2022-08-20T07:06:31;6.15;;;5.50;;
49738;SDS011;53662;50.114;8.626;2022-08-20T07:08:57;7.47;;;6.28;;
49738;SDS011;53662;50.114;8.626;2022-08-20T07:11:23;6.38;;;5.90;;
49738;SDS011;53662;50.114;8.626;2022-08-20T07:13:49;6.18;;;5.78;;
49738;SDS011;53662;50.114;8.626;2022-08-20T07:16:15;6.03;;;5.63;;
49738;SDS011;53662;50.114;8.626;2022-08-20T07:18:41;6.38;;;5.85;;
49738;SDS011;53662;50.114;8.626;2022-08-20T07:21:07;6.38;;;5.97;;
49738;SDS011;53662;50.114;8.626;2022-08-20T07:23:33;6.55;;;6.03;;
49738;SDS011;53662;50.114;8.626;2022-08-20T07:26:00;5.75;;;5.30;;
49738;SDS011;53662;50.114;8.626;2022-08-20T07:28:27;6.65;;;6.15;;
49738;SDS011;53662;50.114;8.626;2022-08-20T07:30:53;6.07;;;5.68;;
49738;SDS011;53662;50.114;8.626;2022-08-20T07:33:38;6.97;;;6.38;;
49738;SDS011;53662;50.114;8.626;2022-08-20T07:36:05;6.47;;;6.03;;
49738;SDS011;53662;50.114;8.626;2022-08-20T07:38:31;7.10;;;6.57;;
49738;SDS011;53662;50.114;8.626;2022-08-20T07:40:58;6.60;;;6.25;;
49738;SDS011;53662;50.114;8.626;2022-08-20T07:43:25;6.40;;;5.82;;
49738;SDS011;53662;50.114;8.626;2022-08-20T07:45:52;6.68;;;6.22;;
49738;SDS011;53662;50.114;8.626;2022-08-20T07:48:20;6.40;;;6.00;;
49738;SDS011;53662;50.114;8.626;2022-08-20T07:50:48;5.75;;;5.45;;
49738;SDS011;53662;50.114;8.626;2022-08-20T07:53:14;5.68;;;5.28;;
49738;SDS011;53662;50.114;8.626;2022-08-20T07:55:41;5.53;;;5.22;;
49738;SDS011;53662;50.114;8.626;2022-08-20T07:58:10;5.45;;;5.15;;
49738;SDS011;53662;50.114;8.626;2022-08-20T08:00:36;5.47;;;4.95;;
49738;SDS011;53662;50.114;8.626;2022-08-20T08:03:02;5.07;;;4.70;;
49738;SDS011;53662;50.114;8.626;2022-08-20T08:05:29;6.30;;;5.30;;
49738;SDS011;53662;50.114;8.626;2022-08-20T08:07:55;6.25;;;5.82;;
49738;SDS011;53662;50.114;8.626;2022-08-20T08:10:22;6.07;;;5.68;;
49738;SDS011;53662;50.114;8.626;2022-08-20T08:12:50;4.88;;;4.68;;
49738;SDS011;53662;50.114;8.626;2022-08-20T08:15:18;6.00;;;5.70;;
49738;SDS011;53662;50.114;8.626;2022-08-20T08:17:46;5.78;;;5.38;;
49738;SDS011;53662;50.114;8.626;2022-08-20T08:20:13;5.32;;;5.03;;
49738;SDS011;53662;50.114;8.626;2022-08-20T08:22:39;5.05;;;4.75;;
49738;SDS011;53662;50.114;8.626;2022-08-20T08:25:08;4.78;;;4.47;;
49738;SDS011;53662;50.114;8.626;2022-08-20T08:27:34;4.78;;;4.53;;
49738;SDS011;53662;50.114;8.626;2022-08-20T08:30:00;5.68;;;5.28;;
49738;SDS011;53662;50.114;8.626;2022-08-20T08:32:27;6.10;;;5.60;;
49738;SDS011;53662;50.114;8.626;2022-08-20T08:34:55;4.95;;;4.60;;
49738;SDS011;53662;50.114;8.626;2022-08-20T08:37:21;5.50;;;4.97;;
49738;SDS011;53662;50.114;8.626;2022-08-20T08:39:47;5.72;;;5.38;;
49738;SDS011;53662;50.114;8.626;2022-08-20T08:42:21;6.30;;;5.93;;
49738;SDS011;53662;50.114;8.626;2022-08-20T08:44:50;6.90;;;6.35;;
49738;SDS011;53662;50.114;8.626;2022-08-20T08:47:20;7.40;;;6.80;;
49738;SDS011;53662;50.114;8.626;2022-08-20T08:52:17;5.22;;;4.97;;
49738;SDS011;53662;50.114;8.626;2022-08-20T08:54:46;4.10;;;3.80;;
49738;SDS011;53662;50.114;8.626;2022-08-20T08:57:13;5.60;;;5.20;;
49738;SDS011;53662;50.114;8.626;2022-08-20T08:59:40;5.32;;;5.03;;
49738;SDS011;53662;50.114;8.626;2022-08-20T09:02:06;5.47;;;5.05;;
49738;SDS011;53662;50.114;8.626;2022-08-20T09:04:34;5.15;;;4.85;;
49738;SDS011;53662;50.114;8.626;2022-08-20T09:07:01;4.88;;;4.40;;
49738;SDS011;53662;50.114;8.626;2022-08-20T09:09:29;5.05;;;4.30;;
49738;SDS011;53662;50.114;8.626;2022-08-20T09:12:00;5.40;;;4.03;;
49738;SDS011;53662;50.114;8.626;2022-08-20T09:14:27;3.78;;;3.58;;
49738;SDS011;53662;50.114;8.626;2022-08-20T09:16:53;4.88;;;4.53;;
49738;SDS011;53662;50.114;8.626;2022-08-20T09:19:19;5.90;;;4.70;;
49738;SDS011;53662;50.114;8.626;2022-08-20T09:21:45;4.25;;;3.78;;
49738;SDS011;53662;50.114;8.626;2022-08-20T09:24:11;4.18;;;3.88;;
49738;SDS011;53662;50.114;8.626;2022-08-20T09:26:37;7.93;;;4.22;;
49738;SDS011;53662;50.114;8.626;2022-08-20T09:29:03;3.42;;;3.13;;
49738;SDS011;53662;50.114;8.626;2022-08-20T09:31:29;4.57;;;3.60;;
49738;SDS011;53662;50.114;8.626;2022-08-20T09:33:55;4.93;;;3.35;;
49738;SDS011;53662;50.114;8.626;2022-08-20T09:36:21;4.82;;;3.10;;
49738;SDS011;53662;50.114;8.626;2022-08-20T09:38:47;2.78;;;2.58;;
49738;SDS011;53662;50.114;8.626;2022-08-20T09:41:14;2.60;;;2.50;;
49738;SDS011;53662;50.114;8.626;2022-08-20T09:43:40;1.73;;;1.73;;
49738;SDS011;53662;50.114;8.626;2022-08-20T09:46:06;2.90;;;1.77;;
49738;SDS011;53662;50.114;8.626;2022-08-20T09:48:32;1.48;;;1.45;;
49738;SDS011;53662;50.114;8.626;2022-08-20T09:50:58;2.08;;;1.98;;
49738;SDS011;53662;50.114;8.626;2022-08-20T09:53:24;1.70;;;1.70;;
49738;SDS011;53662;50.114;8.626;2022-08-20T09:55:51;1.65;;;1.65;;
49738;SDS011;53662;50.114;8.626;2022-08-20T09:58:19;2.88;;;1.50;;
49738;SDS011;53662;50.114;8.626;2022-08-20T10:00:46;1.67;;;1.58;;
49738;SDS011;53662;50.114;8.626;2022-08-20T10:03:13;1.83;;;1.70;;
49738;SDS011;53662;50.114;8.626;2022-08-20T10:05:39;1.63;;;1.50;;
49738;SDS011;53662;50.114;8.626;2022-08-20T10:08:07;1.70;;;1.60;;
49738;SDS011;53662;50.114;8.626;2022-08-20T10:10:36;1.50;;;1.40;;
49738;SDS011;53662;50.114;8.626;2022-08-20T10:13:04;1.60;;;1.50;;
49738;SDS011;53662;50.114;8.626;2022-08-20T10:15:33;1.40;;;1.33;;
49738;SDS011;53662;50.114;8.626;2022-08-20T10:18:02;1.42;;;1.42;;
49738;SDS011;53662;50.114;8.626;2022-08-20T10:20:29;1.67;;;1.20;;
49738;SDS011;53662;50.114;8.626;2022-08-20T10:23:01;1.10;;;1.10;;
49738;SDS011;53662;50.114;8.626;2022-08-20T10:25:27;1.60;;;1.50;;
49738;SDS011;53662;50.114;8.626;2022-08-20T10:27:56;2.80;;;1.73;;
49738;SDS011;53662;50.114;8.626;2022-08-20T10:30:23;2.00;;;1.90;;
49738;SDS011;53662;50.114;8.626;2022-08-20T10:32:54;1.40;;;1.35;;
49738;SDS011;53662;50.114;8.626;2022-08-20T10:35:20;1.30;;;1.30;;
49738;SDS011;53662;50.114;8.626;2022-08-20T10:37:46;1.42;;;1.42;;
49738;SDS011;53662;50.114;8.626;2022-08-20T10:40:14;1.10;;;1.10;;
49738;SDS011;53662;50.114;8.626;2022-08-20T10:42:41;1.15;;;1.15;;
49738;SDS011;53662;50.114;8.626;2022-08-20T10:45:08;1.30;;;1.20;;
49738;SDS011;53662;50.114;8.626;2022-08-20T10:47:34;2.58;;;1.40;;
49738;SDS011;53662;50.114;8.626;2022-08-20T10:50:02;0.90;;;0.90;;
49738;SDS011;53662;50.114;8.626;2022-08-20T10:52:29;1.30;;;1.30;;
49738;SDS011;53662;50.114;8.626;2022-08-20T10:54:58;1.20;;;1.20;;
49738;SDS011;53662;50.114;8.626;2022-08-20T10:57:25;1.20;;;1.20;;
49738;SDS011;53662;50.114;8.626;2022-08-20T10:59:54;1.67;;;1.17;;
49738;SDS011;53662;50.114;8.626;2022-08-20T11:02:24;1.17;;;1.15;;
49738;SDS011;53662;50.114;8.626;2022-08-20T11:04:51;1.33;;;1.30;;
49738;SDS011;53662;50.114;8.626;2022-08-20T11:07:23;3.20;;;1.20;;
49738;SDS011;53662;50.114;8.626;2022-08-20T11:09:52;1.33;;;1.30;;
49738;SDS011;53662;50.114;8.626;2022-08-20T11:12:19;1.98;;;1.27;;
49738;SDS011;53662;50.114;8.626;2022-08-20T11:14:48;1.10;;;1.10;;
49738;SDS011;53662;50.114;8.626;2022-08-20T11:17:24;5.05;;;1.10;;
49738;SDS011;53662;50.114;8.626;2022-08-20T11:19:50;1.73;;;1.63;;
49738;SDS011;53662;50.114;8.626;2022-08-20T11:22:17;2.08;;;1.42;;
49738;SDS011;53662;50.114;8.626;2022-08-20T11:24:45;1.33;;;1.15;;
49738;SDS011;53662;50.114;8.626;2022-08-20T11:27:14;6.95;;;1.25;;
49738;SDS011;53662;50.114;8.626;2022-08-20T11:29:43;6.18;;;1.55;;
49738;SDS011;53662;50.114;8.626;2022-08-20T11:32:08;3.92;;;1.45;;
49738;SDS011;53662;50.114;8.626;2022-08-20T11:34:35;1.48;;;1.10;;
49738;SDS011;53662;50.114;8.626;2022-08-20T11:37:04;5.10;;;1.23;;
49738;SDS011;53662;50.114;8.626;2022-08-20T11:39:34;1.13;;;1.13;;
49738;SDS011;53662;50.114;8.626;2022-08-20T11:42:01;1.08;;;1.08;;
49738;SDS011;53662;50.114;8.626;2022-08-20T11:44:26;1.20;;;1.20;;
49738;SDS011;53662;50.114;8.626;2022-08-20T11:46:58;1.17;;;1.00;;
49738;SDS011;53662;50.114;8.626;2022-08-20T11:49:27;0.80;;;0.80;;
49738;SDS011;53662;50.114;8.626;2022-08-20T11:51:53;0.80;;;0.80;;
49738;SDS011;53662;50.114;8.626;2022-08-20T11:54:22;0.88;;;0.88;;
49738;SDS011;53662;50.114;8.626;2022-08-20T11:56:48;5.40;;;1.10;;
49738;SDS011;53662;50.114;8.626;2022-08-20T11:59:14;6.32;;;1.00;;
49738;SDS011;53662;50.114;8.626;2022-08-20T12:01:41;1.50;;;1.40;;
49738;SDS011;53662;50.114;8.626;2022-08-20T12:04:07;0.60;;;0.60;;
49738;SDS011;53662;50.114;8.626;2022-08-20T12:06:35;1.27;;;0.60;;
49738;SDS011;53662;50.114;8.626;2022-08-20T12:09:02;0.85;;;0.60;;
49738;SDS011;53662;50.114;8.626;2022-08-20T12:11:30;1.10;;;0.80;;
49738;SDS011;53662;50.114;8.626;2022-08-20T12:13:58;0.50;;;0.50;;
49738;SDS011;53662;50.114;8.626;2022-08-20T12:18:56;0.60;;;0.60;;
49738;SDS011;53662;50.114;8.626;2022-08-20T12:21:22;1.10;;;1.00;;
49738;SDS011;53662;50.114;8.626;2022-08-20T12:23:50;2.25;;;0.57;;
49738;SDS011;53662;50.114;8.626;2022-08-20T12:26:16;0.50;;;0.50;;
49738;SDS011;53662;50.114;8.626;2022-08-20T12:28:42;0.52;;;0.52;;
49738;SDS011;53662;50.114;8.626;2022-08-20T12:31:09;1.75;;;0.77;;
49738;SDS011;53662;50.114;8.626;2022-08-20T12:33:35;3.05;;;0.60;;
49738;SDS011;53662;50.114;8.626;2022-08-20T12:36:01;0.30;;;0.30;;
49738;SDS011;53662;50.114;8.626;2022-08-20T12:38:27;0.30;;;0.30;;
49738;SDS011;53662;50.114;8.626;2022-08-20T12:40:53;1.02;;;1.02;;
49738;SDS011;53662;50.114;8.626;2022-08-20T12:43:22;5.35;;;0.70;;
49738;SDS011;53662;50.114;8.626;2022-08-20T12:45:50;0.38;;;0.38;;
49738;SDS011;53662;50.114;8.626;2022-08-20T12:48:21;0.68;;;0.68;;
49738;SDS011;53662;50.114;8.626;2022-08-20T12:50:50;1.70;;;0.57;;
49738;SDS011;53662;50.114;8.626;2022-08-20T12:53:16;1.80;;;0.45;;
49738;SDS011;53662;50.114;8.626;2022-08-20T12:55:45;0.40;;;0.40;;
49738;SDS011;53662;50.114;8.626;2022-08-20T12:58:14;0.40;;;0.40;;
49738;SDS011;53662;50.114;8.626;2022-08-20T13:00:43;0.30;;;0.30;;
49738;SDS011;53662;50.114;8.626;2022-08-20T13:03:12;0.75;;;0.40;;
49738;SDS011;53662;50.114;8.626;2022-08-20T13:05:38;0.50;;;0.50;;
49738;SDS011;53662;50.114;8.626;2022-08-20T13:08:06;0.43;;;0.43;;
49738;SDS011;53662;50.114;8.626;2022-08-20T13:10:36;0.65;;;0.47;;
49738;SDS011;53662;50.114;8.626;2022-08-20T13:13:06;0.45;;;0.45;;
49738;SDS011;53662;50.114;8.626;2022-08-20T13:15:32;0.57;;;0.57;;
49738;SDS011;53662;50.114;8.626;2022-08-20T13:17:59;0.63;;;0.63;;
49738;SDS011;53662;50.114;8.626;2022-08-20T13:20:25;0.60;;;0.60;;
49738;SDS011;53662;50.114;8.626;2022-08-20T13:22:54;0.60;;;0.60;;
49738;SDS011;53662;50.114;8.626;2022-08-20T13:25:21;0.60;;;0.60;;
49738;SDS011;53662;50.114;8.626;2022-08-20T13:27:47;7.22;;;0.70;;
49738;SDS011;53662;50.114;8.626;2022-08-20T13:30:17;0.70;;;0.70;;
49738;SDS011;53662;50.114;8.626;2022-08-20T13:32:44;2.40;;;1.10;;
49738;SDS011;53662;50.114;8.626;2022-08-20T13:35:11;0.98;;;0.98;;
49738;SDS011;53662;50.114;8.626;2022-08-20T13:37:37;1.02;;;0.90;;
49738;SDS011;53662;50.114;8.626;2022-08-20T13:40:04;1.00;;;1.00;;
49738;SDS011;53662;50.114;8.626;2022-08-20T13:42:31;3.95;;;1.38;;
49738;SDS011;53662;50.114;8.626;2022-08-20T13:44:57;0.93;;;0.93;;
49738;SDS011;53662;50.114;8.626;2022-08-20T13:47:29;2.85;;;1.10;;
49738;SDS011;53662;50.114;8.626;2022-08-20T13:50:07;1.40;;;1.30;;
49738;SDS011;53662;50.114;8.626;2022-08-20T13:52:34;2.25;;;1.15;;
49738;SDS011;53662;50.114;8.626;2022-08-20T13:55:00;1.48;;;1.40;;
49738;SDS011;53662;50.114;8.626;2022-08-20T13:57:29;2.58;;;1.33;;
49738;SDS011;53662;50.114;8.626;2022-08-20T14:02:23;1.50;;;1.50;;
49738;SDS011;53662;50.114;8.626;2022-08-20T14:04:50;1.30;;;1.30;;
49738;SDS011;53662;50.114;8.626;2022-08-20T14:07:17;1.65;;;1.58;;
49738;SDS011;53662;50.114;8.626;2022-08-20T14:09:44;1.80;;;1.70;;
49738;SDS011;53662;50.114;8.626;2022-08-20T14:12:11;1.77;;;1.77;;
49738;SDS011;53662;50.114;8.626;2022-08-20T14:14:38;1.80;;;1.70;;
49738;SDS011;53662;50.114;8.626;2022-08-20T14:19:45;2.50;;;2.30;;
49738;SDS011;53662;50.114;8.626;2022-08-20T14:22:12;2.40;;;2.20;;
49738;SDS011;53662;50.114;8.626;2022-08-20T14:24:38;6.68;;;2.92;;
49738;SDS011;53662;50.114;8.626;2022-08-20T14:27:05;1.73;;;1.63;;
49738;SDS011;53662;50.114;8.626;2022-08-20T14:29:32;5.70;;;1.63;;
49738;SDS011;53662;50.114;8.626;2022-08-20T14:31:58;1.80;;;1.55;;
49738;SDS011;53662;50.114;8.626;2022-08-20T14:34:24;2.00;;;1.90;;
49738;SDS011;53662;50.114;8.626;2022-08-20T14:36:50;2.53;;;2.35;;
49738;SDS011;53662;50.114;8.626;2022-08-20T14:39:16;2.90;;;1.77;;
49738;SDS011;53662;50.114;8.626;2022-08-20T14:41:42;1.90;;;1.77;;
49738;SDS011;53662;50.114;8.626;2022-08-20T14:44:08;1.80;;;1.70;;
49738;SDS011;53662;50.114;8.626;2022-08-20T14:46:34;2.42;;;1.40;;
49738;SDS011;53662;50.114;8.626;2022-08-20T14:49:00;1.55;;;1.45;;
49738;SDS011;53662;50.114;8.626;2022-08-20T14:51:26;3.40;;;1.80;;
49738;SDS011;53662;50.114;8.626;2022-08-20T14:53:52;1.60;;;1.50;;
49738;SDS011;53662;50.114;8.626;2022-08-20T14:56:18;3.08;;;1.70;;
49738;SDS011;53662;50.114;8.626;2022-08-20T14:58:44;6.30;;;2.00;;
49738;SDS011;53662;50.114;8.626;2022-08-20T15:01:10;3.78;;;1.58;;
49738;SDS011;53662;50.114;8.626;2022-08-20T15:03:36;1.83;;;1.67;;
49738;SDS011;53662;50.114;8.626;2022-08-20T15:06:02;1.95;;;1.92;;